createdAt,value
2018-06-09T00:02:02.577Z,27.77
2018-06-09T00:04:30.313Z,24.87
2018-06-09T00:06:57.852Z,24.70
2018-06-09T00:09:25.458Z,29.90
2018-06-09T00:11:53.023Z,28.67
2018-06-09T00:14:20.666Z,30.90
2018-06-09T00:16:48.238Z,30.30
2018-06-09T00:19:15.909Z,30.00
2018-06-09T00:21:43.619Z,30.67
2018-06-09T00:24:11.267Z,27.80
2018-06-09T00:26:38.895Z,32.80
2018-06-09T00:29:06.466Z,29.53
2018-06-09T00:31:34.145Z,35.30
2018-06-09T00:34:01.866Z,28.40
2018-06-09T00:36:29.439Z,27.53
2018-06-09T00:38:56.977Z,26.83
2018-06-09T00:41:24.568Z,28.90
2018-06-09T00:43:52.204Z,29.57
2018-06-09T00:46:19.865Z,32.13
2018-06-09T00:48:47.653Z,30.20
2018-06-09T00:51:15.276Z,35.70
2018-06-09T00:53:42.960Z,33.37
2018-06-09T00:56:15.889Z,34.87
2018-06-09T00:58:43.461Z,31.70
2018-06-09T01:01:11.107Z,32.53
2018-06-09T01:03:38.750Z,31.50
2018-06-09T01:06:06.356Z,32.53
2018-06-09T01:08:33.939Z,33.13
2018-06-09T01:11:02.567Z,29.13
2018-06-09T01:13:30.145Z,33.00
2018-06-09T01:15:57.724Z,29.23
2018-06-09T01:18:25.365Z,29.27
2018-06-09T01:20:52.976Z,30.47
2018-06-09T01:23:20.664Z,30.77
2018-06-09T01:25:48.384Z,30.30
2018-06-09T01:28:16.019Z,23.40
2018-06-09T01:30:43.662Z,28.57
2018-06-09T01:33:11.331Z,24.07
2018-06-09T01:35:38.955Z,27.17
2018-06-09T01:38:06.615Z,28.37
2018-06-09T01:40:34.255Z,28.00
2018-06-09T01:43:01.934Z,28.33
2018-06-09T01:45:29.522Z,28.63
2018-06-09T01:47:57.144Z,31.90
2018-06-09T01:50:24.813Z,30.57
2018-06-09T01:52:52.751Z,28.77
2018-06-09T01:55:20.349Z,26.97
2018-06-09T01:57:48.282Z,28.13
2018-06-09T02:00:15.867Z,28.90
2018-06-09T02:02:43.431Z,33.00
2018-06-09T02:05:10.980Z,31.10
2018-06-09T02:07:38.570Z,32.87
2018-06-09T02:10:06.207Z,34.03
2018-06-09T02:12:33.941Z,36.43
2018-06-09T02:15:01.816Z,33.27
2018-06-09T02:17:29.400Z,36.50
2018-06-09T02:19:57.106Z,35.40
2018-06-09T02:22:24.675Z,39.47
2018-06-09T02:24:52.484Z,34.00
2018-06-09T02:27:20.295Z,37.90
2018-06-09T02:29:48.000Z,31.87
2018-06-09T02:32:15.549Z,35.27
2018-06-09T02:34:43.183Z,30.27
2018-06-09T02:37:11.873Z,29.50
2018-06-09T02:39:39.538Z,28.27
2018-06-09T02:42:07.325Z,27.47
2018-06-09T02:44:35.076Z,30.77
2018-06-09T02:47:02.775Z,32.10
2018-06-09T02:49:30.448Z,28.07
2018-06-09T02:51:58.055Z,32.07
2018-06-09T02:54:25.673Z,28.27
2018-06-09T02:56:53.407Z,28.93
2018-06-09T02:59:20.931Z,27.33
2018-06-09T03:01:48.556Z,33.67
2018-06-09T03:04:16.191Z,34.77
2018-06-09T03:06:43.802Z,32.57
2018-06-09T03:09:11.347Z,29.13
2018-06-09T03:11:38.972Z,28.97
2018-06-09T03:14:06.526Z,28.77
2018-06-09T03:16:34.145Z,26.83
2018-06-09T03:19:01.972Z,29.57
2018-06-09T03:21:29.563Z,30.87
2018-06-09T03:23:57.236Z,27.37
2018-06-09T03:26:24.788Z,28.07
2018-06-09T03:28:52.483Z,28.27
2018-06-09T03:31:20.118Z,29.63
2018-06-09T03:33:47.724Z,28.20
2018-06-09T03:36:15.307Z,26.67
2018-06-09T03:38:42.935Z,27.80
2018-06-09T03:41:10.595Z,24.97
2018-06-09T03:43:38.353Z,23.50
2018-06-09T03:46:05.928Z,25.90
2018-06-09T03:48:33.558Z,29.43
2018-06-09T03:51:01.226Z,28.73
2018-06-09T03:53:28.820Z,27.37
2018-06-09T03:55:56.477Z,28.80
2018-06-09T03:58:26.332Z,29.97
2018-06-09T04:00:54.066Z,30.23
2018-06-09T04:03:22.088Z,31.17
2018-06-09T04:05:50.848Z,27.77
2018-06-09T04:08:18.417Z,26.47
2018-06-09T04:10:46.033Z,27.83
2018-06-09T04:13:13.783Z,27.33
2018-06-09T04:15:41.441Z,28.93
2018-06-09T04:18:09.066Z,27.53
2018-06-09T04:20:36.854Z,27.60
2018-06-09T04:23:04.540Z,25.97
2018-06-09T04:25:32.156Z,24.80
2018-06-09T04:27:59.777Z,29.07
2018-06-09T04:30:27.369Z,27.93
2018-06-09T04:32:54.963Z,27.60
2018-06-09T04:35:22.608Z,31.97
2018-06-09T04:37:50.291Z,27.00
2018-06-09T04:40:21.844Z,29.17
2018-06-09T04:42:54.216Z,32.23
2018-06-09T04:45:22.038Z,28.03
2018-06-09T04:47:49.684Z,28.83
2018-06-09T04:50:17.303Z,30.03
2018-06-09T04:52:44.912Z,26.43
2018-06-09T04:55:12.525Z,25.33
2018-06-09T04:57:40.109Z,24.80
2018-06-09T05:00:07.816Z,25.37
2018-06-09T05:02:35.453Z,25.67
2018-06-09T05:05:03.135Z,24.50
2018-06-09T05:07:30.828Z,25.97
2018-06-09T05:09:58.434Z,28.57
2018-06-09T05:12:25.965Z,29.47
2018-06-09T05:14:53.586Z,27.60
2018-06-09T05:17:22.367Z,26.03
2018-06-09T05:19:50.033Z,26.73
2018-06-09T05:22:17.661Z,23.40
2018-06-09T05:24:45.358Z,25.50
2018-06-09T05:27:13.036Z,27.73
2018-06-09T05:29:40.564Z,25.20
2018-06-09T05:32:08.209Z,24.97
2018-06-09T05:34:35.805Z,28.40
2018-06-09T05:37:03.589Z,28.90
2018-06-09T05:39:31.286Z,28.40
2018-06-09T05:42:00.059Z,28.97
2018-06-09T05:44:28.833Z,27.43
2018-06-09T05:46:56.436Z,27.50
2018-06-09T05:49:25.077Z,26.73
2018-06-09T05:51:52.765Z,31.07
2018-06-09T05:54:20.387Z,25.93
2018-06-09T05:57:04.717Z,27.20
2018-06-09T05:59:32.457Z,27.77
2018-06-09T06:02:00.300Z,27.73
2018-06-09T06:04:28.801Z,26.07
2018-06-09T06:06:56.388Z,15.30
2018-06-09T06:09:24.006Z,9.20
2018-06-09T06:11:51.734Z,12.63
2018-06-09T06:14:19.392Z,19.70
2018-06-09T06:16:46.972Z,13.60
2018-06-09T06:19:14.575Z,16.87
2018-06-09T06:21:42.271Z,19.77
2018-06-09T06:24:09.886Z,17.23
2018-06-09T06:26:37.575Z,15.20
2018-06-09T06:29:05.207Z,17.20
2018-06-09T06:31:32.919Z,20.07
2018-06-09T06:34:00.630Z,13.87
2018-06-09T06:36:28.420Z,21.73
2018-06-09T06:38:56.255Z,22.17
2018-06-09T06:41:24.921Z,22.17
2018-06-09T06:43:52.912Z,26.00
2018-06-09T06:46:20.759Z,23.60
2018-06-09T06:48:48.497Z,23.37
2018-06-09T06:51:16.236Z,24.70
2018-06-09T06:53:43.974Z,24.90
2018-06-09T06:56:11.605Z,25.47
2018-06-09T06:58:39.520Z,24.70
2018-06-09T07:01:09.309Z,30.70
2018-06-09T07:03:46.391Z,33.03
2018-06-09T07:06:19.302Z,35.47
2018-06-09T07:08:52.649Z,35.10
2018-06-09T07:11:27.046Z,36.53
2018-06-09T07:13:57.391Z,37.23
2018-06-09T07:16:25.135Z,34.88
2018-06-09T07:18:52.784Z,29.85
2018-06-09T07:21:20.515Z,29.00
2018-06-09T07:23:48.136Z,31.70
2018-06-09T07:26:15.819Z,26.27
2018-06-09T07:28:43.548Z,25.17
2018-06-09T07:31:11.191Z,20.32
2018-06-09T07:33:38.889Z,20.15
2018-06-09T07:36:06.447Z,18.15
2018-06-09T07:38:34.006Z,16.10
2018-06-09T07:41:01.946Z,17.73
2018-06-09T07:43:29.613Z,16.65
2018-06-09T07:45:57.197Z,17.70
2018-06-09T07:48:24.836Z,17.48
2018-06-09T07:50:52.453Z,17.82
2018-06-09T07:53:20.028Z,17.57
2018-06-09T07:55:47.726Z,17.07
2018-06-09T07:58:15.345Z,17.65
2018-06-09T08:00:42.918Z,17.85
2018-06-09T08:03:10.551Z,17.27
2018-06-09T08:05:38.176Z,13.32
2018-06-09T08:08:05.724Z,15.18
2018-06-09T08:10:33.312Z,14.98
2018-06-09T08:13:01.021Z,14.83
2018-06-09T08:15:28.593Z,18.07
2018-06-09T08:17:56.216Z,15.08
2018-06-09T08:20:23.803Z,13.48
2018-06-09T08:22:51.676Z,13.43
2018-06-09T08:25:19.286Z,14.33
2018-06-09T08:27:46.879Z,11.70
2018-06-09T08:30:14.504Z,18.50
2018-06-09T08:32:42.056Z,20.52
2018-06-09T08:35:09.658Z,14.78
2018-06-09T08:37:38.173Z,14.07
2018-06-09T08:40:05.797Z,14.23
2018-06-09T08:42:33.514Z,17.10
2018-06-09T08:45:01.413Z,19.62
2018-06-09T08:47:29.225Z,18.40
2018-06-09T08:49:56.757Z,16.65
2018-06-09T08:52:24.300Z,18.05
2018-06-09T08:54:51.994Z,17.32
2018-06-09T08:57:19.698Z,15.45
2018-06-09T08:59:47.311Z,18.20
2018-06-09T09:02:14.967Z,17.52
2018-06-09T09:04:42.594Z,18.87
2018-06-09T09:07:10.152Z,16.55
2018-06-09T09:09:38.006Z,18.37
2018-06-09T09:12:05.783Z,17.73
2018-06-09T09:14:33.723Z,15.63
2018-06-09T09:17:01.435Z,19.02
2018-06-09T09:19:29.085Z,16.62
2018-06-09T09:21:57.282Z,16.95
2018-06-09T09:24:24.930Z,20.62
2018-06-09T09:26:52.519Z,16.50
2018-06-09T09:29:21.308Z,16.45
2018-06-09T09:31:48.998Z,17.12
2018-06-09T09:34:16.600Z,15.58
2018-06-09T09:36:44.282Z,16.95
2018-06-09T09:39:11.844Z,15.25
2018-06-09T09:41:39.572Z,17.00
2018-06-09T09:44:07.344Z,15.63
2018-06-09T09:46:34.906Z,18.02
2018-06-09T09:49:02.467Z,16.55
2018-06-09T09:51:30.091Z,18.02
2018-06-09T09:53:57.654Z,16.27
2018-06-09T09:56:25.292Z,16.70
2018-06-09T09:58:52.903Z,15.83
2018-06-09T10:01:20.549Z,16.93
2018-06-09T10:03:48.344Z,13.85
2018-06-09T10:06:15.911Z,15.08
2018-06-09T10:08:43.714Z,14.33
2018-06-09T10:11:11.310Z,15.65
2018-06-09T10:13:38.842Z,15.20
2018-06-09T10:16:06.426Z,14.65
2018-06-09T10:18:34.218Z,14.30
2018-06-09T10:21:01.842Z,13.30
2018-06-09T10:23:29.461Z,13.22
2018-06-09T10:25:57.361Z,14.45
2018-06-09T10:28:24.971Z,14.85
2018-06-09T10:30:52.600Z,13.95
2018-06-09T10:33:20.244Z,12.13
2018-06-09T10:35:47.994Z,13.03
2018-06-09T10:38:15.617Z,14.55
2018-06-09T10:40:43.231Z,16.37
2018-06-09T10:43:10.853Z,14.43
2018-06-09T10:45:38.422Z,13.50
2018-06-09T10:48:06.065Z,13.15
2018-06-09T10:50:33.715Z,13.60
2018-06-09T10:53:01.356Z,12.73
2018-06-09T10:55:29.091Z,14.95
2018-06-09T10:57:56.807Z,13.38
2018-06-09T11:00:24.546Z,12.82
2018-06-09T11:02:52.156Z,15.43
2018-06-09T11:05:19.860Z,13.38
2018-06-09T11:07:47.425Z,12.82
2018-06-09T11:10:15.109Z,11.95
2018-06-09T11:12:42.686Z,12.95
2018-06-09T11:15:10.253Z,12.33
2018-06-09T11:17:37.794Z,13.08
2018-06-09T11:20:05.498Z,13.25
2018-06-09T11:22:33.141Z,13.48
2018-06-09T11:25:00.790Z,14.70
2018-06-09T11:27:28.316Z,14.07
2018-06-09T11:29:55.985Z,13.32
2018-06-09T11:32:23.529Z,12.82
2018-06-09T11:34:51.188Z,13.45
2018-06-09T11:37:18.854Z,11.88
2018-06-09T11:39:46.451Z,13.30
2018-06-09T11:42:14.070Z,11.25
2018-06-09T11:44:41.624Z,13.30
2018-06-09T11:47:09.425Z,13.60
2018-06-09T11:49:36.965Z,12.20
2018-06-09T11:52:04.645Z,11.38
2018-06-09T11:54:32.222Z,12.37
2018-06-09T11:56:59.736Z,13.10
2018-06-09T11:59:27.411Z,14.50
2018-06-09T12:01:54.952Z,13.00
2018-06-09T12:04:22.664Z,12.98
2018-06-09T12:06:50.352Z,11.85
2018-06-09T12:09:17.965Z,12.33
2018-06-09T12:11:45.557Z,12.25
2018-06-09T12:14:13.218Z,12.70
2018-06-09T12:16:40.837Z,11.38
2018-06-09T12:19:08.402Z,10.50
2018-06-09T12:21:36.064Z,9.78
2018-06-09T12:24:03.730Z,13.80
2018-06-09T12:26:31.310Z,9.98
2018-06-09T12:28:58.889Z,8.33
2018-06-09T12:31:26.483Z,9.83
2018-06-09T12:33:54.073Z,10.53
2018-06-09T12:36:21.693Z,10.75
2018-06-09T12:38:49.509Z,10.65
2018-06-09T12:41:17.095Z,9.63
2018-06-09T12:43:45.048Z,10.43
2018-06-09T12:46:12.989Z,10.28
2018-06-09T12:48:40.864Z,9.88
2018-06-09T12:51:08.669Z,9.58
2018-06-09T12:53:36.606Z,9.55
2018-06-09T12:56:04.449Z,9.53
2018-06-09T12:58:31.994Z,9.00
2018-06-09T13:00:59.612Z,10.38
2018-06-09T13:03:27.216Z,8.80
2018-06-09T13:05:54.888Z,9.60
2018-06-09T13:08:22.462Z,10.45
2018-06-09T13:10:50.031Z,10.85
2018-06-09T13:13:17.620Z,10.85
2018-06-09T13:15:45.213Z,10.75
2018-06-09T13:18:12.888Z,10.35
2018-06-09T13:20:40.488Z,9.40
2018-06-09T13:23:08.065Z,8.75
2018-06-09T13:25:35.685Z,9.20
2018-06-09T13:28:03.384Z,11.05
2018-06-09T13:30:30.977Z,10.48
2018-06-09T13:32:58.927Z,11.08
2018-06-09T13:35:26.649Z,10.85
2018-06-09T13:37:54.265Z,9.93
2018-06-09T13:40:21.940Z,9.45
2018-06-09T13:42:49.556Z,10.15
2018-06-09T13:45:17.191Z,10.40
2018-06-09T13:47:44.726Z,9.80
2018-06-09T13:50:12.349Z,10.90
2018-06-09T13:52:39.969Z,12.50
2018-06-09T13:55:07.582Z,10.93
2018-06-09T13:57:35.205Z,12.30
2018-06-09T14:00:02.880Z,9.88
2018-06-09T14:02:30.442Z,12.20
2018-06-09T14:04:58.148Z,11.80
2018-06-09T14:07:26.228Z,12.82
2018-06-09T14:09:53.894Z,12.75
2018-06-09T14:12:21.494Z,12.20
2018-06-09T14:14:49.059Z,12.68
2018-06-09T14:17:16.558Z,12.75
2018-06-09T14:19:44.121Z,13.55
2018-06-09T14:22:11.797Z,12.63
2018-06-09T14:24:39.358Z,14.33
2018-06-09T14:27:06.928Z,15.55
2018-06-09T14:29:34.605Z,15.63
2018-06-09T14:32:02.157Z,15.90
2018-06-09T14:34:29.791Z,15.55
2018-06-09T14:36:57.418Z,15.75
2018-06-09T14:39:25.130Z,16.27
2018-06-09T14:41:52.792Z,16.87
2018-06-09T14:44:20.383Z,17.10
2018-06-09T14:46:48.135Z,17.45
2018-06-09T14:49:15.916Z,17.80
2018-06-09T14:51:43.531Z,17.62
2018-06-09T14:54:11.036Z,18.50
2018-06-09T14:56:38.649Z,18.50
2018-06-09T14:59:06.259Z,19.30
2018-06-09T15:01:33.849Z,19.23
2018-06-09T15:04:01.441Z,16.52
2018-06-09T15:06:29.002Z,19.73
2018-06-09T15:08:56.517Z,19.85
2018-06-09T15:11:24.265Z,18.62
2018-06-09T15:13:51.830Z,15.28
2018-06-09T15:16:19.457Z,13.65
2018-06-09T15:18:47.024Z,12.90
2018-06-09T15:21:14.600Z,13.75
2018-06-09T15:23:42.184Z,14.18
2018-06-09T15:26:09.841Z,12.45
2018-06-09T15:28:37.389Z,12.60
2018-06-09T15:31:04.973Z,10.65
2018-06-09T15:33:32.626Z,10.90
2018-06-09T15:36:00.389Z,11.35
2018-06-09T15:38:28.166Z,11.38
2018-06-09T15:40:55.759Z,11.88
2018-06-09T15:43:23.388Z,12.43
2018-06-09T15:45:50.924Z,12.03
2018-06-09T15:48:18.471Z,11.63
2018-06-09T15:50:46.059Z,14.13
2018-06-09T15:53:13.766Z,11.03
2018-06-09T15:55:41.338Z,12.45
2018-06-09T15:58:09.306Z,14.05
2018-06-09T16:00:36.893Z,13.60
2018-06-09T16:03:04.400Z,13.65
2018-06-09T16:05:32.094Z,14.68
2018-06-09T16:07:59.718Z,13.05
2018-06-09T16:10:27.308Z,15.18
2018-06-09T16:12:54.891Z,14.68
2018-06-09T16:15:22.528Z,13.15
2018-06-09T16:17:50.176Z,14.63
2018-06-09T16:20:17.775Z,15.25
2018-06-09T16:22:45.508Z,15.03
2018-06-09T16:25:13.101Z,15.23
2018-06-09T16:27:40.714Z,14.63
2018-06-09T16:30:08.565Z,14.35
2018-06-09T16:32:36.193Z,17.57
2018-06-09T16:35:03.875Z,15.10
2018-06-09T16:37:31.440Z,16.40
2018-06-09T16:39:59.164Z,15.55
2018-06-09T16:42:26.767Z,17.00
2018-06-09T16:44:54.360Z,14.90
2018-06-09T16:47:21.922Z,15.20
2018-06-09T16:49:49.517Z,15.32
2018-06-09T16:52:17.165Z,14.25
2018-06-09T16:54:44.761Z,14.85
2018-06-09T16:57:12.363Z,17.95
2018-06-09T16:59:40.037Z,15.10
2018-06-09T17:02:07.665Z,14.70
2018-06-09T17:04:35.403Z,15.78
2018-06-09T17:07:02.968Z,15.20
2018-06-09T17:09:30.572Z,15.35
2018-06-09T17:11:58.314Z,16.15
2018-06-09T17:14:25.954Z,15.55
2018-06-09T17:16:53.836Z,15.70
2018-06-09T17:19:21.442Z,16.50
2018-06-09T17:21:49.284Z,15.25
2018-06-09T17:24:16.886Z,15.10
2018-06-09T17:26:44.542Z,16.15
2018-06-09T17:29:12.184Z,17.02
2018-06-09T17:31:39.787Z,17.67
2018-06-09T17:34:07.289Z,14.95
2018-06-09T17:36:34.897Z,15.50
2018-06-09T17:39:02.429Z,15.32
2018-06-09T17:41:30.116Z,16.42
2018-06-09T17:43:57.744Z,15.58
2018-06-09T17:46:25.354Z,14.50
2018-06-09T17:48:52.970Z,17.85
2018-06-09T17:51:20.599Z,18.82
2018-06-09T17:53:48.173Z,17.77
2018-06-09T17:56:15.771Z,17.30
2018-06-09T17:58:43.420Z,17.93
2018-06-09T18:01:11.209Z,19.48
2018-06-09T18:03:38.881Z,18.03
2018-06-09T18:06:06.506Z,13.32
2018-06-09T18:08:34.275Z,14.58
2018-06-09T18:11:01.955Z,14.80
2018-06-09T18:13:29.598Z,14.35
2018-06-09T18:15:57.261Z,11.35
2018-06-09T18:18:24.812Z,10.23
2018-06-09T18:20:52.444Z,11.43
2018-06-09T18:23:20.118Z,13.20
2018-06-09T18:25:47.671Z,13.37
2018-06-09T18:28:15.427Z,11.50
2018-06-09T18:30:43.127Z,10.73
2018-06-09T18:33:10.779Z,10.53
2018-06-09T18:35:38.433Z,11.20
2018-06-09T18:38:06.006Z,11.77
2018-06-09T18:40:33.682Z,11.07
2018-06-09T18:43:01.399Z,12.53
2018-06-09T18:45:28.931Z,13.73
2018-06-09T18:47:56.521Z,12.40
2018-06-09T18:50:24.201Z,13.47
2018-06-09T18:52:51.859Z,14.27
2018-06-09T18:55:19.441Z,14.37
2018-06-09T18:57:47.100Z,14.40
2018-06-09T19:00:14.690Z,16.00
2018-06-09T19:02:42.349Z,16.10
2018-06-09T19:05:09.986Z,15.60
2018-06-09T19:07:37.548Z,16.13
2018-06-09T19:10:05.106Z,18.43
2018-06-09T19:12:32.754Z,17.60
2018-06-09T19:15:00.354Z,16.47
2018-06-09T19:17:28.457Z,16.17
2018-06-09T19:20:05.395Z,15.53
2018-06-09T19:22:34.563Z,16.47
2018-06-09T19:25:02.151Z,17.70
2018-06-09T19:27:29.779Z,17.53
2018-06-09T19:29:57.471Z,16.90
2018-06-09T19:32:25.107Z,16.37
2018-06-09T19:34:52.713Z,16.13
2018-06-09T19:37:20.238Z,17.60
2018-06-09T19:39:47.854Z,19.10
2018-06-09T19:42:15.466Z,17.47
2018-06-09T19:44:43.109Z,17.50
2018-06-09T19:47:10.731Z,17.23
2018-06-09T19:49:38.364Z,20.33
2018-06-09T19:52:05.879Z,18.43
2018-06-09T19:54:33.418Z,18.87
2018-06-09T19:57:01.071Z,17.97
2018-06-09T19:59:28.720Z,19.37
2018-06-09T20:01:56.379Z,19.03
2018-06-09T20:04:24.018Z,22.40
2018-06-09T20:06:51.612Z,19.30
2018-06-09T20:09:19.279Z,17.17
2018-06-09T20:11:46.969Z,17.70
2018-06-09T20:14:14.561Z,17.37
2018-06-09T20:16:42.192Z,18.30
2018-06-09T20:19:09.862Z,16.63
2018-06-09T20:21:37.478Z,17.83
2018-06-09T20:24:05.193Z,17.93
2018-06-09T20:26:33.044Z,17.00
2018-06-09T20:29:00.648Z,16.10
2018-06-09T20:31:28.263Z,17.00
2018-06-09T20:33:55.880Z,19.10
2018-06-09T20:36:23.453Z,17.10
2018-06-09T20:38:51.265Z,20.17
2018-06-09T20:41:18.924Z,19.03
2018-06-09T20:43:46.584Z,18.50
2018-06-09T20:46:14.351Z,19.23
2018-06-09T20:48:42.130Z,19.73
2018-06-09T20:51:09.832Z,19.57
2018-06-09T20:53:37.449Z,19.43
2018-06-09T20:56:05.099Z,19.47
2018-06-09T20:58:37.993Z,20.77
2018-06-09T21:01:05.792Z,21.17
2018-06-09T21:03:33.541Z,21.80
2018-06-09T21:06:01.314Z,25.93
2018-06-09T21:08:28.833Z,23.03
2018-06-09T21:10:56.457Z,22.70
2018-06-09T21:13:24.141Z,21.90
2018-06-09T21:15:51.769Z,22.87
2018-06-09T21:18:19.502Z,23.80
2018-06-09T21:20:47.253Z,23.27
2018-06-09T21:23:14.885Z,25.40
2018-06-09T21:25:42.653Z,25.83
2018-06-09T21:28:12.891Z,24.73
2018-06-09T21:30:41.685Z,25.40
2018-06-09T21:33:15.947Z,24.87
2018-06-09T21:35:50.945Z,25.47
2018-06-09T21:40:24.856Z,23.80
2018-06-09T21:42:58.032Z,23.13
2018-06-09T21:45:31.045Z,24.53
2018-06-09T21:47:58.633Z,24.20
2018-06-09T21:50:26.377Z,24.90
2018-06-09T21:52:54.027Z,25.23
2018-06-09T21:55:21.817Z,24.57
2018-06-09T21:57:49.432Z,25.60
2018-06-09T22:00:17.017Z,24.93
2018-06-09T22:02:44.620Z,25.67
2018-06-09T22:05:12.266Z,25.73
2018-06-09T22:07:39.874Z,25.70
2018-06-09T22:10:07.602Z,26.03
2018-06-09T22:12:35.189Z,25.10
2018-06-09T22:15:02.933Z,25.07
2018-06-09T22:17:30.615Z,27.17
2018-06-09T22:19:58.226Z,25.70
2018-06-09T22:22:25.849Z,24.30
2018-06-09T22:24:53.439Z,26.17
2018-06-09T22:27:21.136Z,23.07
2018-06-09T22:29:48.774Z,21.90
2018-06-09T22:32:16.389Z,22.30
2018-06-09T22:34:44.064Z,20.23
2018-06-09T22:37:11.826Z,19.70
2018-06-09T22:39:39.535Z,18.57
2018-06-09T22:42:07.067Z,19.83
2018-06-09T22:44:34.729Z,17.83
2018-06-09T22:47:02.349Z,18.80
2018-06-09T22:49:29.992Z,17.07
2018-06-09T22:51:57.670Z,17.70
2018-06-09T22:54:25.249Z,18.80
2018-06-09T22:56:52.860Z,19.40
2018-06-09T22:59:20.480Z,20.37
2018-06-09T23:01:48.065Z,22.50
2018-06-09T23:04:15.769Z,22.73
2018-06-09T23:06:43.533Z,21.37
2018-06-09T23:09:11.221Z,25.30
2018-06-09T23:11:38.837Z,21.40
2018-06-09T23:14:06.461Z,22.47
2018-06-09T23:16:34.077Z,21.40
2018-06-09T23:19:01.680Z,23.23
2018-06-09T23:21:29.303Z,23.60
2018-06-09T23:23:57.112Z,23.67
2018-06-09T23:26:24.693Z,22.17
2018-06-09T23:28:52.267Z,22.53
2018-06-09T23:31:19.888Z,28.17
2018-06-09T23:33:47.468Z,28.10
2018-06-09T23:36:15.053Z,27.83
2018-06-09T23:38:42.684Z,26.53
2018-06-09T23:41:10.560Z,27.33
2018-06-09T23:43:38.136Z,28.97
2018-06-09T23:46:05.771Z,26.87
2018-06-09T23:48:33.479Z,24.37
2018-06-09T23:51:01.214Z,25.10
2018-06-09T23:53:28.888Z,28.70
2018-06-09T23:55:56.550Z,27.17
2018-06-09T23:58:24.568Z,25.70
